Pagrindinis puslapis
METAR-TAF:

METAR-TAF

Oro uostai :

Seulas Inčonas, Pietų Korėja

platuma: 37-28N, ilguma: 126-27E, Aukštis: 7 m

Dabartinis oras

Ataskaita buvo paskelbta 33 minutes, ne 11:00 UTC
Vėjas 5 kt iš Vakarų/Šiaurės Vakarų
Temperatūra 16°C
Drėgmė 59%
Slėgis 1025 hPa
Matomumas 10 km arba daugiau
nėra debesų žemiau 1500 m ir nėra kamuolinių lietaus debesų

METAR: RKSI 161100Z 30005KT CAVOK 16/08 Q1025 NOSIG

Laikas: 20:33 (11:33 UTC)

Prognozė

Ataskaita buvo paskelbta 6 valandos ir 33 minutes, ne 05:00 UTC
Prognozė galioja nuo 16 metu 06 UTC su 17 metu 12 UTC
Vėjas 10 kt iš Šiaurės/Šiaurės Vakarų
Matomumas 10 km arba daugiau
nėra debesų žemiau 1500 m ir nėra kamuolinių lietaus debesų
Tapsmas
nuo 16 metu 12 UTC su 16 metu 13 UTC
Vėjas 6 kt iš Šiaurės Rytų
Tapsmas
nuo 17 metu 03 UTC su 17 metu 04 UTC
Vėjas 10 kt iš Šiaurės
Tapsmas
nuo 17 metu 05 UTC su 17 metu 06 UTC
Vėjas 6 kt iš Šiaurės Rytų

TAF: RKSI 160500Z 1606/1712 34010KT CAVOK TN11/1621Z TX19/1706Z BECMG 1612/1613 05006KT BECMG 1703/1704 35010KT BECMG 1705/1706 05006KT

Orai ataskaitas ir orų prognozės (METAR, TAF).

turimą stotys yra geltonos ir raudonos taškus žemėlapyje.

Perkelti pele per norėdami pamatyti stoties vardą.

Tada spustelėkite, norėdami matyti oro stebėjimo ir prognozės.

Norėdami pakeisti žemėlapį: spustelėkite ant žalios mygtukų su juodo kryžiaus žemyn,; žalią mygtuką su brūkšneliu, jei norite nutolinti; arba žalių rodyklių gretimoms žemėlapius.


METAR-TAF: